Time;durP1;ratioP1;P1;durP2;ratioP2;P2;SDS_P1;SDS_P2;PMS_P1;PMS_P2;Temp;Humidity;BMP_temperature;BMP_pressure;BME280_temperature;BME280_humidity;BME280_pressure;Samples;Min_cycle;Max_cycle;Signal;HPM_P1;HPM_P2
2023/01/07 00:01:29;;;;;;;31.92;23.10;;;8.70;99.90;;;;;;4903347;29;20123;-81
2023/01/07 00:03:56;;;;;;;32.65;23.90;;;8.70;99.90;;;;;;4901855;29;20507;-82
2023/01/07 00:06:28;;;;;;;30.02;22.50;;;8.80;99.90;;;;;;4901524;29;20092;-82
2023/01/07 00:08:55;;;;;;;35.10;24.95;;;8.90;99.90;;;;;;4878006;29;20041;-82
2023/01/07 00:11:26;;;;;;;39.58;27.13;;;9.90;99.90;;;;;;4901535;29;20666;-82
2023/01/07 00:13:53;;;;;;;37.47;26.35;;;8.90;99.90;;;;;;4879676;29;20052;-81
2023/01/07 00:16:21;;;;;;;31.50;23.70;;;8.90;99.90;;;;;;4892878;29;20127;-83
2023/01/07 00:18:47;;;;;;;32.30;23.88;;;10.30;99.90;;;;;;4879221;29;20069;-83
2023/01/07 00:21:15;;;;;;;35.53;24.58;;;9.00;99.90;;;;;;4906799;29;20135;-82
2023/01/07 00:23:42;;;;;;;30.45;23.52;;;10.30;99.90;;;;;;4906507;29;20053;-82
2023/01/07 00:26:14;;;;;;;32.78;23.20;;;9.40;99.90;;;;;;4896062;29;20053;-82
2023/01/07 00:28:41;;;;;;;36.30;23.60;;;9.10;99.90;;;;;;4906164;29;20052;-83
2023/01/07 00:31:28;;;;;;;26.85;21.85;;;10.20;99.90;;;;;;4883587;29;20499;-81
2023/01/07 00:36:27;;;;;;;29.45;22.33;;;9.20;99.90;;;;;;4895463;29;20412;-82
2023/01/07 00:39:00;;;;;;;29.75;22.30;;;9.20;99.90;;;;;;4880733;29;20068;-81
2023/01/07 00:41:26;;;;;;;28.48;21.77;;;9.30;99.90;;;;;;4895251;29;20056;-82
2023/01/07 00:43:52;;;;;;;27.63;21.13;;;10.50;99.90;;;;;;4908610;29;20048;-81
2023/01/07 00:46:18;;;;;;;25.35;20.20;;;9.40;99.90;;;;;;4908261;29;20048;-84
2023/01/07 00:48:44;;;;;;;25.20;19.75;;;9.30;99.90;;;;;;4905014;29;20079;-83
2023/01/07 00:51:11;;;;;;;23.48;19.27;;;9.60;99.90;;;;;;4905367;29;20049;-83
2023/01/07 00:53:36;;;;;;;33.20;22.80;;;10.30;99.90;;;;;;4906350;29;20044;-81
2023/01/07 00:56:02;;;;;;;31.88;22.38;;;10.50;99.90;;;;;;4907542;29;20048;-83
2023/01/07 00:58:28;;;;;;;28.23;20.42;;;9.40;99.90;;;;;;4898487;29;20052;-83
2023/01/07 01:00:55;;;;;;;26.08;19.55;;;9.40;99.90;;;;;;4904811;29;20036;-81
2023/01/07 01:03:21;;;;;;;26.10;19.48;;;10.80;99.90;;;;;;4887989;29;20053;-81
2023/01/07 01:05:47;;;;;;;26.83;20.25;;;9.40;99.90;;;;;;4895546;29;20435;-82
2023/01/07 01:08:12;;;;;;;24.55;19.27;;;9.70;99.90;;;;;;4882653;29;20040;-83
2023/01/07 01:10:38;;;;;;;22.70;18.40;;;9.50;99.90;;;;;;4906011;29;20036;-82
2023/01/07 01:13:04;;;;;;;24.10;19.35;;;10.70;99.90;;;;;;4879914;29;20485;-84
2023/01/07 01:15:30;;;;;;;26.25;19.10;;;10.90;99.90;;;;;;4879350;29;20036;-83
2023/01/07 01:17:55;;;;;;;26.52;20.55;;;9.50;99.90;;;;;;4886960;29;20472;-83
2023/01/07 01:20:22;;;;;;;23.90;18.40;;;9.80;99.90;;;;;;4903924;29;20048;-83
2023/01/07 01:22:48;;;;;;;26.75;19.33;;;9.60;99.90;;;;;;4897568;29;20045;-83
2023/01/07 01:25:14;;;;;;;23.23;18.92;;;10.90;99.90;;;;;;4897440;29;20055;-82
2023/01/07 01:27:40;;;;;;;28.35;19.33;;;9.60;99.90;;;;;;4896655;29;20051;-82
2023/01/07 01:30:06;;;;;;;26.63;20.08;;;9.70;99.90;;;;;;4895072;29;20056;-83
2023/01/07 01:32:32;;;;;;;21.83;17.48;;;9.70;99.90;;;;;;4893182;29;20441;-83
2023/01/07 01:34:58;;;;;;;24.23;18.67;;;10.30;99.90;;;;;;4907932;29;20409;-82
2023/01/07 01:37:23;;;;;;;20.88;17.48;;;9.70;99.90;;;;;;4898157;29;20407;-83
2023/01/07 01:39:49;;;;;;;24.13;18.02;;;9.80;99.90;;;;;;4895008;29;20095;-83
2023/01/07 01:42:20;;;;;;;25.20;18.20;;;9.80;99.90;;;;;;4903994;29;20037;-83
2023/01/07 01:44:50;;;;;;;21.05;17.80;;;9.80;99.90;;;;;;4895862;29;20040;-82
2023/01/07 01:47:44;;;;;;;20.17;18.02;;;9.80;99.90;;;;;;4906974;29;20082;-81
2023/01/07 01:50:25;;;;;;;20.95;18.35;;;9.80;99.90;;;;;;4897345;29;20457;-82
2023/01/07 01:53:05;;;;;;;21.33;17.88;;;9.80;99.90;;;;;;4896411;29;20416;-82
2023/01/07 01:55:39;;;;;;;23.63;19.52;;;9.90;99.90;;;;;;4882812;29;20055;-81
2023/01/07 01:58:10;;;;;;;20.38;18.17;;;9.90;99.90;;;;;;4904714;29;20049;-81
2023/01/07 02:00:36;;;;;;;20.55;18.42;;;9.90;99.90;;;;;;4903175;29;20041;-82
2023/01/07 02:03:04;;;;;;;21.88;19.42;;;11.00;99.90;;;;;;4897916;29;20099;-82
2023/01/07 02:05:35;;;;;;;23.50;19.60;;;9.90;99.90;;;;;;4906449;29;20098;-82
2023/01/07 02:08:01;;;;;;;20.67;18.48;;;9.90;99.90;;;;;;4878836;29;20330;-81
2023/01/07 02:10:27;;;;;;;23.67;20.77;;;10.50;99.90;;;;;;4903363;29;20438;-81
2023/01/07 02:13:17;;;;;;;21.65;19.00;;;11.50;99.90;;;;;;4880128;29;20044;-81
2023/01/07 02:16:14;;;;;;;19.63;17.67;;;9.90;99.90;;;;;;4895860;29;20504;-82
2023/01/07 02:19:15;;;;;;;19.13;17.15;;;9.90;99.90;;;;;;4903248;29;20056;-82
2023/01/07 02:22:04;;;;;;;21.67;19.30;;;10.00;99.90;;;;;;4895821;29;20055;-81
2023/01/07 02:24:54;;;;;;;23.70;19.15;;;10.00;99.90;;;;;;4893631;29;20048;-82
2023/01/07 02:27:51;;;;;;;21.35;19.15;;;10.00;99.90;;;;;;4882676;29;20485;-82
2023/01/07 02:30:55;;;;;;;23.38;19.52;;;10.00;99.90;;;;;;4882098;29;20051;-83
2023/01/07 02:33:26;;;;;;;22.67;20.27;;;10.00;99.90;;;;;;4888569;29;20115;-82
2023/01/07 02:36:22;;;;;;;21.92;19.73;;;10.00;99.90;;;;;;4904325;29;20052;-81
2023/01/07 02:38:50;;;;;;;23.63;21.23;;;10.10;99.90;;;;;;4904310;29;20052;-81
2023/01/07 02:41:31;;;;;;;21.38;18.75;;;10.00;99.90;;;;;;4902395;29;20048;-82
2023/01/07 02:44:05;;;;;;;20.27;18.27;;;10.10;99.90;;;;;;4905533;29;20068;-82
2023/01/07 02:46:50;;;;;;;21.30;19.13;;;10.10;99.90;;;;;;4896674;29;20111;-82
2023/01/07 02:49:17;;;;;;;19.30;17.45;;;10.10;99.90;;;;;;4870899;29;20044;-81
2023/01/07 02:51:43;;;;;;;23.40;20.15;;;10.10;99.90;;;;;;4893988;29;20056;-82
2023/01/07 02:54:13;;;;;;;21.48;18.92;;;11.40;99.90;;;;;;4905874;29;20040;-82
2023/01/07 02:57:08;;;;;;;21.75;19.52;;;10.10;99.90;;;;;;4896502;29;20492;-81
2023/01/07 02:59:48;;;;;;;20.95;18.77;;;10.10;99.90;;;;;;4881040;29;20099;-82
2023/01/07 03:02:21;;;;;;;22.02;19.70;;;10.10;99.90;;;;;;4871027;29;20041;-81
2023/01/07 03:05:06;;;;;;;22.08;19.77;;;10.10;99.90;;;;;;4894498;29;20064;-82
2023/01/07 03:08:03;;;;;;;21.77;19.48;;;10.10;99.90;;;;;;4905044;29;20444;-81
2023/01/07 03:10:46;;;;;;;22.52;19.88;;;10.10;99.90;;;;;;4896654;29;20116;-82
2023/01/07 03:13:29;;;;;;;21.38;19.17;;;10.10;99.90;;;;;;4895377;29;20095;-82
2023/01/07 03:16:07;;;;;;;21.73;19.23;;;10.20;99.90;;;;;;4880190;29;20047;-82
2023/01/07 03:18:37;;;;;;;21.42;19.23;;;10.10;99.90;;;;;;4905430;29;20059;-82
2023/01/07 03:21:08;;;;;;;22.52;20.33;;;10.10;99.90;;;;;;4878082;29;20395;-82
2023/01/07 03:23:38;;;;;;;23.08;20.77;;;10.10;99.90;;;;;;4901567;29;20052;-83
2023/01/07 03:26:05;;;;;;;22.17;19.90;;;10.10;99.90;;;;;;4905070;29;20092;-82
2023/01/07 03:28:39;;;;;;;20.48;18.38;;;10.10;99.90;;;;;;4879897;29;20354;-82
2023/01/07 03:31:09;;;;;;;24.70;20.83;;;10.10;99.90;;;;;;4892590;29;20080;-81
2023/01/07 03:33:41;;;;;;;22.55;20.15;;;10.10;99.90;;;;;;4893098;29;20199;-82
2023/01/07 03:36:09;;;;;;;22.38;20.30;;;10.10;99.90;;;;;;4896509;29;20040;-81
2023/01/07 03:38:36;;;;;;;23.70;21.25;;;10.20;99.90;;;;;;4905231;29;20060;-83
2023/01/07 03:41:02;;;;;;;21.25;19.00;;;10.10;99.90;;;;;;4893739;29;20183;-83
2023/01/07 03:43:28;;;;;;;21.50;19.40;;;10.20;99.90;;;;;;4901753;29;20123;-82
2023/01/07 03:45:57;;;;;;;21.58;19.38;;;10.10;99.90;;;;;;4902697;29;20052;-83
2023/01/07 03:48:23;;;;;;;23.83;18.65;;;10.10;99.90;;;;;;4895421;29;20047;-82
2023/01/07 03:50:48;;;;;;;19.10;17.17;;;10.10;99.90;;;;;;4904527;29;20048;-82
2023/01/07 03:53:14;;;;;;;17.73;16.00;;;10.50;99.90;;;;;;4901075;29;20146;-82
2023/01/07 03:55:40;;;;;;;18.42;16.75;;;10.10;99.90;;;;;;4900833;29;20052;-82
2023/01/07 03:58:05;;;;;;;18.00;16.27;;;10.10;99.90;;;;;;4864306;29;20047;-81
2023/01/07 04:00:31;;;;;;;18.77;16.83;;;10.10;99.90;;;;;;4903738;29;20123;-81
2023/01/07 04:02:57;;;;;;;20.45;17.70;;;10.10;99.90;;;;;;4903503;29;20095;-82
2023/01/07 04:05:22;;;;;;;20.40;18.35;;;10.10;99.90;;;;;;4892050;29;20040;-83
2023/01/07 04:07:48;;;;;;;18.70;16.90;;;10.20;99.90;;;;;;4901546;29;20051;-81
2023/01/07 04:10:14;;;;;;;19.58;17.63;;;10.20;99.90;;;;;;4904123;29;20063;-82
2023/01/07 04:12:39;;;;;;;18.33;16.17;;;10.10;99.90;;;;;;4903371;29;20115;-82
2023/01/07 04:15:06;;;;;;;19.70;16.85;;;10.20;99.90;;;;;;4893080;29;20083;-83
2023/01/07 04:17:31;;;;;;;18.33;16.42;;;10.10;99.90;;;;;;4901177;29;20111;-83
2023/01/07 04:19:57;;;;;;;20.80;17.00;;;11.40;99.90;;;;;;4892653;29;20612;-82
2023/01/07 04:22:23;;;;;;;18.10;16.25;;;10.20;99.90;;;;;;4904430;29;20508;-82
2023/01/07 04:24:48;;;;;;;21.35;17.75;;;11.10;99.90;;;;;;4904240;29;20091;-82
2023/01/07 04:27:14;;;;;;;18.83;16.60;;;10.10;99.90;;;;;;4891308;29;20041;-82
2023/01/07 04:29:39;;;;;;;21.05;18.13;;;10.20;99.90;;;;;;4876245;29;20063;-83
2023/01/07 04:32:05;;;;;;;18.58;16.73;;;10.10;99.90;;;;;;4895092;29;20048;-83
2023/01/07 04:34:31;;;;;;;22.00;18.08;;;11.60;99.90;;;;;;4904127;29;20059;-83
2023/01/07 04:36:56;;;;;;;19.55;16.67;;;11.30;99.90;;;;;;4894223;29;20503;-82
2023/01/07 04:39:22;;;;;;;20.70;18.00;;;10.10;99.90;;;;;;4891659;29;20516;-81
2023/01/07 04:41:47;;;;;;;18.23;16.42;;;10.90;99.90;;;;;;4900434;29;20140;-82
2023/01/07 04:44:16;;;;;;;18.30;16.38;;;10.10;99.90;;;;;;4895010;29;20139;-81
2023/01/07 04:46:42;;;;;;;19.90;17.08;;;10.10;99.90;;;;;;4879414;29;20100;-82
2023/01/07 04:49:08;;;;;;;22.35;16.30;;;10.10;99.90;;;;;;4900783;29;20039;-81
2023/01/07 04:51:33;;;;;;;17.75;15.80;;;10.10;99.90;;;;;;4900935;29;20123;-81
2023/01/07 04:53:59;;;;;;;21.02;16.80;;;11.30;99.90;;;;;;4893438;29;20045;-82
2023/01/07 04:56:25;;;;;;;18.02;16.08;;;10.70;99.90;;;;;;4903218;29;20423;-81
2023/01/07 04:58:50;;;;;;;20.90;16.65;;;11.20;99.90;;;;;;4904075;29;20040;-82
2023/01/07 05:01:16;;;;;;;17.08;15.05;;;10.10;99.90;;;;;;4901280;29;20037;-82
2023/01/07 05:03:41;;;;;;;18.00;16.17;;;11.20;99.90;;;;;;4891510;29;20081;-82
2023/01/07 05:06:08;;;;;;;17.88;15.98;;;11.40;99.90;;;;;;4904305;29;20486;-82
2023/01/07 05:08:33;;;;;;;16.30;14.70;;;11.50;99.90;;;;;;4907541;29;20048;-82
2023/01/07 05:11:00;;;;;;;19.38;14.77;;;10.00;99.90;;;;;;4897733;29;20048;-83
2023/01/07 05:13:26;;;;;;;16.92;15.13;;;11.00;99.90;;;;;;4904506;29;20116;-83
2023/01/07 05:15:52;;;;;;;16.83;14.73;;;10.00;99.90;;;;;;4895636;29;20127;-83
2023/01/07 05:18:18;;;;;;;16.60;14.38;;;10.00;99.90;;;;;;4906006;29;20068;-83
2023/01/07 05:20:45;;;;;;;18.80;14.57;;;10.00;99.90;;;;;;4904515;29;20516;-82
2023/01/07 05:23:10;;;;;;;17.00;15.20;;;11.30;99.90;;;;;;4906245;29;20515;-82
2023/01/07 05:25:36;;;;;;;15.65;14.15;;;10.00;99.90;;;;;;4907192;29;20040;-82
2023/01/07 05:28:02;;;;;;;15.75;14.15;;;10.80;99.90;;;;;;4906017;29;20606;-83
2023/01/07 05:30:28;;;;;;;15.43;13.85;;;10.00;99.90;;;;;;4902970;29;20051;-82
2023/01/07 05:32:53;;;;;;;15.45;13.82;;;10.30;99.90;;;;;;4904583;29;20363;-82
2023/01/07 05:35:19;;;;;;;12.15;10.80;;;10.00;99.90;;;;;;4896469;29;20040;-82
2023/01/07 05:37:45;;;;;;;16.98;12.93;;;10.00;99.90;;;;;;4903260;29;20120;-82
2023/01/07 05:40:11;;;;;;;14.90;13.13;;;10.00;99.90;;;;;;4905558;29;20097;-81
2023/01/07 05:42:37;;;;;;;13.90;12.07;;;10.00;99.90;;;;;;4898484;29;20036;-82
2023/01/07 05:45:03;;;;;;;16.05;13.20;;;10.00;99.90;;;;;;4905446;29;20100;-83
2023/01/07 05:47:29;;;;;;;13.30;11.93;;;10.00;99.90;;;;;;4894263;29;20064;-82
2023/01/07 05:49:54;;;;;;;14.48;12.82;;;10.00;99.90;;;;;;4879501;29;20496;-82
2023/01/07 05:52:20;;;;;;;12.57;11.38;;;10.00;99.90;;;;;;4881516;29;20040;-83
2023/01/07 05:54:46;;;;;;;12.55;11.25;;;11.00;99.90;;;;;;4897824;29;20044;-82
2023/01/07 05:57:11;;;;;;;12.52;11.23;;;10.00;99.90;;;;;;4895447;29;20461;-82
2023/01/07 05:59:37;;;;;;;14.05;11.27;;;10.70;99.90;;;;;;4896637;29;20552;-82
2023/01/07 06:02:03;;;;;;;12.52;11.15;;;9.90;99.90;;;;;;4897066;29;20551;-82
2023/01/07 06:04:29;;;;;;;12.90;10.95;;;10.00;99.90;;;;;;4893971;29;20461;-83
2023/01/07 06:06:55;;;;;;;15.15;11.35;;;9.90;99.90;;;;;;4878111;29;20048;-81
2023/01/07 06:09:22;;;;;;;14.55;11.23;;;11.00;99.90;;;;;;4894284;29;20037;-83
2023/01/07 06:11:51;;;;;;;11.65;10.45;;;9.90;99.90;;;;;;4903725;29;20058;-81
2023/01/07 06:14:49;;;;;;;11.85;9.70;;;9.90;99.90;;;;;;4906279;29;20135;-82
2023/01/07 06:17:15;;;;;;;11.70;10.50;;;9.80;99.90;;;;;;4903817;29;20412;-82
2023/01/07 06:19:40;;;;;;;11.80;10.27;;;9.90;99.90;;;;;;4892561;29;20127;-84
2023/01/07 06:22:06;;;;;;;11.75;9.35;;;9.80;99.90;;;;;;4879745;29;20036;-82
2023/01/07 06:24:32;;;;;;;12.20;10.38;;;9.90;99.90;;;;;;4896871;29;20040;-83
2023/01/07 06:26:57;;;;;;;11.65;9.65;;;9.80;99.90;;;;;;4896390;29;20052;-83
2023/01/07 06:29:23;;;;;;;14.27;10.07;;;11.00;99.90;;;;;;4906228;29;20103;-82
2023/01/07 06:31:48;;;;;;;11.10;9.15;;;9.80;99.90;;;;;;4897192;29;20058;-82
2023/01/07 06:34:14;;;;;;;12.73;9.32;;;9.80;99.90;;;;;;4894207;29;20040;-82
2023/01/07 06:36:40;;;;;;;14.57;9.75;;;9.80;99.90;;;;;;4893963;29;20052;-83
2023/01/07 06:39:05;;;;;;;12.23;9.40;;;9.60;99.90;;;;;;4894354;29;20057;-81
2023/01/07 06:41:31;;;;;;;15.43;9.98;;;9.70;99.90;;;;;;4896068;29;20079;-83
2023/01/07 06:43:57;;;;;;;11.20;9.65;;;10.80;99.90;;;;;;4896999;29;20492;-82
2023/01/07 06:46:22;;;;;;;15.15;9.35;;;10.00;99.90;;;;;;4893694;29;20048;-82
2023/01/07 06:48:48;;;;;;;12.60;9.00;;;10.40;99.90;;;;;;4901987;29;20045;-82
2023/01/07 06:51:13;;;;;;;11.27;8.88;;;9.80;99.90;;;;;;4904218;29;20091;-82
2023/01/07 06:53:39;;;;;;;12.40;9.27;;;11.20;99.90;;;;;;4896576;29;20485;-82
2023/01/07 06:56:05;;;;;;;9.75;8.73;;;9.80;99.90;;;;;;4880217;29;20134;-82
2023/01/07 06:58:30;;;;;;;9.95;8.45;;;9.70;99.90;;;;;;4894259;29;20413;-82
2023/01/07 07:01:01;;;;;;;12.98;8.60;;;9.70;99.90;;;;;;4903706;29;20128;-82
2023/01/07 07:03:27;;;;;;;9.52;7.82;;;9.70;99.90;;;;;;4884795;29;20049;-82
2023/01/07 07:05:52;;;;;;;13.60;8.73;;;11.00;99.90;;;;;;4893627;29;20052;-82
2023/01/07 07:08:18;;;;;;;13.13;8.93;;;10.90;99.90;;;;;;4894246;29;20511;-83
2023/01/07 07:10:43;;;;;;;9.65;7.80;;;11.10;99.90;;;;;;4905457;29;20047;-82
2023/01/07 07:13:10;;;;;;;10.15;8.35;;;9.70;99.90;;;;;;4879973;29;20047;-83
2023/01/07 07:15:36;;;;;;;11.60;8.57;;;9.70;99.90;;;;;;4892816;29;20048;-82
2023/01/07 07:18:02;;;;;;;8.73;7.82;;;9.70;99.90;;;;;;4893228;29;20053;-83
2023/01/07 07:20:28;;;;;;;9.50;7.95;;;9.70;99.90;;;;;;4896399;29;20059;-83
2023/01/07 07:22:53;;;;;;;13.75;8.38;;;9.80;99.90;;;;;;4905113;29;20143;-83
2023/01/07 07:25:19;;;;;;;8.82;7.82;;;9.70;99.90;;;;;;4894062;29;20052;-82
2023/01/07 07:27:45;;;;;;;9.88;7.93;;;9.70;99.90;;;;;;4892951;29;20056;-83
2023/01/07 07:30:13;;;;;;;9.93;7.30;;;10.60;99.90;;;;;;4901657;29;20627;-83
2023/01/07 07:32:39;;;;;;;9.10;7.70;;;9.70;99.90;;;;;;4896211;29;20044;-82
2023/01/07 07:35:05;;;;;;;10.55;7.80;;;10.30;99.90;;;;;;4881241;29;20043;-83
2023/01/07 07:37:31;;;;;;;8.38;7.53;;;9.70;99.90;;;;;;4876354;29;20469;-83
2023/01/07 07:39:57;;;;;;;8.20;7.05;;;9.70;99.90;;;;;;4901992;29;20472;-83
2023/01/07 07:42:22;;;;;;;8.65;7.18;;;9.70;99.90;;;;;;4904041;29;20060;-83
2023/01/07 07:44:49;;;;;;;14.02;7.53;;;11.00;99.90;;;;;;4895348;29;20515;-82
2023/01/07 07:47:15;;;;;;;7.30;6.70;;;9.70;99.90;;;;;;4894913;29;20400;-82
2023/01/07 07:49:40;;;;;;;12.55;6.65;;;10.60;99.90;;;;;;4876550;29;20051;-83
2023/01/07 07:52:06;;;;;;;8.13;6.95;;;10.70;99.90;;;;;;4876964;29;20052;-82
2023/01/07 07:54:32;;;;;;;14.05;7.15;;;9.70;99.90;;;;;;4895220;29;20044;-82
2023/01/07 07:56:57;;;;;;;8.10;5.72;;;9.70;99.90;;;;;;4895837;29;20127;-83
2023/01/07 07:59:24;;;;;;;8.30;6.05;;;9.70;99.90;;;;;;4893089;29;20048;-82
2023/01/07 08:01:50;;;;;;;7.47;5.72;;;9.70;99.90;;;;;;4901946;29;20049;-83
2023/01/07 08:04:15;;;;;;;7.53;6.18;;;9.70;99.90;;;;;;4902601;29;20039;-83
2023/01/07 08:06:41;;;;;;;8.85;6.28;;;9.70;99.90;;;;;;4894540;29;20503;-82
2023/01/07 08:09:07;;;;;;;9.13;5.97;;;9.60;99.90;;;;;;4895711;29;20040;-82
2023/01/07 08:11:33;;;;;;;9.50;5.80;;;9.60;99.90;;;;;;4891953;29;20413;-81
2023/01/07 08:13:58;;;;;;;6.75;5.45;;;9.80;99.90;;;;;;4901566;29;20057;-82
2023/01/07 08:16:24;;;;;;;8.30;5.85;;;9.50;99.90;;;;;;4894002;29;20056;-83
2023/01/07 08:18:49;;;;;;;5.18;4.72;;;10.90;99.90;;;;;;4894884;29;20059;-84
2023/01/07 08:21:15;;;;;;;9.98;4.57;;;9.50;99.90;;;;;;4879037;29;20457;-83
2023/01/07 08:23:42;;;;;;;8.85;5.70;;;9.50;99.90;;;;;;4888246;29;20109;-82
2023/01/07 08:26:08;;;;;;;9.20;5.03;;;10.70;99.90;;;;;;4897020;29;20057;-82
2023/01/07 08:28:33;;;;;;;9.55;4.93;;;9.50;99.90;;;;;;4904184;29;20032;-82
2023/01/07 08:31:04;;;;;;;5.95;4.68;;;9.50;99.90;;;;;;4904394;29;20472;-82
2023/01/07 08:33:30;;;;;;;6.88;4.43;;;9.40;99.90;;;;;;4892113;29;20495;-83
2023/01/07 08:35:56;;;;;;;5.60;3.72;;;9.40;99.90;;;;;;4892356;29;20059;-82
2023/01/07 08:38:21;;;;;;;5.70;4.53;;;10.40;99.90;;;;;;4893210;29;20045;-82
2023/01/07 08:40:50;;;;;;;5.95;4.82;;;9.40;99.90;;;;;;4907413;29;20048;-81
2023/01/07 08:43:16;;;;;;;7.43;4.35;;;9.40;99.90;;;;;;4898859;29;20403;-82
2023/01/07 08:45:46;;;;;;;5.18;4.22;;;9.40;99.90;;;;;;4904733;29;20140;-84
2023/01/07 08:48:12;;;;;;;6.18;4.47;;;9.40;99.90;;;;;;4879351;29;20413;-82
2023/01/07 08:50:37;;;;;;;6.63;4.55;;;9.40;99.90;;;;;;4898929;29;20048;-82
2023/01/07 08:53:03;;;;;;;4.03;3.60;;;9.40;99.90;;;;;;4883590;29;20072;-83
2023/01/07 08:55:29;;;;;;;6.05;4.40;;;9.40;99.90;;;;;;4895656;29;20059;-83
2023/01/07 08:57:54;;;;;;;6.10;4.13;;;9.40;99.90;;;;;;4904620;29;20053;-82
2023/01/07 09:00:20;;;;;;;4.82;3.95;;;9.40;99.90;;;;;;4880433;29;20103;-82
2023/01/07 09:02:46;;;;;;;4.75;4.35;;;9.40;99.90;;;;;;4898380;29;20052;-83
2023/01/07 09:05:13;;;;;;;8.45;4.00;;;11.10;99.90;;;;;;4898619;29;20063;-82
2023/01/07 09:07:38;;;;;;;4.47;4.03;;;10.80;99.90;;;;;;4910698;29;20444;-82
2023/01/07 09:10:04;;;;;;;7.13;3.75;;;9.50;99.90;;;;;;4879454;29;20135;-82
2023/01/07 09:12:30;;;;;;;5.55;3.67;;;9.40;99.90;;;;;;4906012;29;20512;-82
2023/01/07 09:14:56;;;;;;;6.40;4.10;;;9.40;99.90;;;;;;4907216;29;20362;-83
2023/01/07 09:17:22;;;;;;;5.13;4.10;;;9.40;99.90;;;;;;4881634;29;20489;-83
2023/01/07 09:19:47;;;;;;;4.18;3.78;;;9.70;99.90;;;;;;4904049;29;20166;-83
2023/01/07 09:22:13;;;;;;;3.08;2.80;;;9.40;99.90;;;;;;4894903;29;20449;-83
2023/01/07 09:24:39;;;;;;;4.68;3.28;;;10.70;99.90;;;;;;4907129;29;20040;-82
2023/01/07 09:27:05;;;;;;;3.70;2.88;;;9.40;99.90;;;;;;4898522;29;20407;-82
2023/01/07 09:29:30;;;;;;;4.20;3.60;;;9.40;99.90;;;;;;4895588;29;20044;-83
2023/01/07 09:31:56;;;;;;;6.22;3.50;;;9.40;99.90;;;;;;4904372;29;20055;-82
2023/01/07 09:34:22;;;;;;;6.30;2.78;;;9.40;99.90;;;;;;4905170;29;20051;-83
2023/01/07 09:36:47;;;;;;;5.50;3.60;;;9.40;99.90;;;;;;4881786;29;20591;-84
2023/01/07 09:39:13;;;;;;;4.50;2.75;;;9.40;99.90;;;;;;4882743;29;20157;-81
2023/01/07 09:42:03;;;;;;;4.50;3.28;;;9.40;99.90;;;;;;4904741;29;20127;-84
2023/01/07 09:44:55;;;;;;;4.57;2.67;;;9.40;99.90;;;;;;4879308;29;20052;-84
2023/01/07 09:47:24;;;;;;;5.75;3.85;;;9.50;99.90;;;;;;4907374;29;20048;-82
2023/01/07 09:49:59;;;;;;;5.07;3.70;;;10.90;99.90;;;;;;4898535;29;20067;-83
2023/01/07 09:52:27;;;;;;;3.47;2.97;;;9.70;99.90;;;;;;4880398;29;20044;-84
2023/01/07 09:55:05;;;;;;;3.55;2.75;;;9.40;99.90;;;;;;4879254;29;20107;-84
2023/01/07 09:57:31;;;;;;;4.68;3.00;;;9.50;99.90;;;;;;4903977;29;20045;-83
2023/01/07 09:59:59;;;;;;;5.45;2.88;;;9.70;99.90;;;;;;4907277;29;20456;-82
2023/01/07 10:02:44;;;;;;;4.70;3.00;;;9.40;99.90;;;;;;4896943;29;20123;-83
2023/01/07 10:05:41;;;;;;;7.63;3.30;;;10.20;99.90;;;;;;4893818;29;20136;-82
2023/01/07 10:08:34;;;;;;;3.80;3.05;;;9.40;99.90;;;;;;4884279;29;20048;-83
2023/01/07 10:11:39;;;;;;;4.03;2.85;;;9.50;99.90;;;;;;4888030;29;20060;-83
2023/01/07 10:14:47;;;;;;;3.53;2.63;;;9.50;99.90;;;;;;4883640;29;20108;-81
2023/01/07 10:17:36;;;;;;;4.82;2.53;;;9.50;99.90;;;;;;4870467;29;20144;-82
2023/01/07 10:20:07;;;;;;;4.55;3.00;;;9.50;99.90;;;;;;4891076;29;20116;-81
2023/01/07 10:22:59;;;;;;;6.95;2.78;;;9.50;99.90;;;;;;4896968;29;20044;-81
2023/01/07 10:25:33;;;;;;;4.40;3.00;;;9.50;99.90;;;;;;4877545;29;20048;-81
2023/01/07 10:28:05;;;;;;;3.80;2.50;;;9.50;99.90;;;;;;4896967;29;20052;-82
2023/01/07 10:30:38;;;;;;;3.42;2.50;;;9.50;99.90;;;;;;4895935;29;20098;-82
2023/01/07 10:33:25;;;;;;;3.92;2.28;;;10.50;99.90;;;;;;4893522;29;20045;-81
2023/01/07 10:36:28;;;;;;;3.33;1.95;;;10.50;99.90;;;;;;4887400;29;20055;-82
2023/01/07 10:39:12;;;;;;;3.63;2.05;;;9.60;99.90;;;;;;4875178;29;20457;-81
2023/01/07 10:42:08;;;;;;;1.98;1.77;;;11.00;99.90;;;;;;4877674;29;20104;-82
2023/01/07 10:44:52;;;;;;;1.88;1.77;;;9.70;99.90;;;;;;4904711;29;20048;-81
2023/01/07 10:48:06;;;;;;;6.67;2.57;;;9.70;99.90;;;;;;4876887;29;20082;-81
2023/01/07 10:51:10;;;;;;;1.85;1.75;;;9.70;99.90;;;;;;4900141;29;20045;-81
2023/01/07 10:54:11;;;;;;;3.53;2.00;;;9.80;99.90;;;;;;4879452;29;20462;-82
2023/01/07 10:56:40;;;;;;;1.90;1.58;;;9.70;99.90;;;;;;4867098;29;20540;-82
2023/01/07 10:59:12;;;;;;;3.33;2.38;;;10.70;99.90;;;;;;4884882;29;20492;-81
2023/01/07 11:01:39;;;;;;;3.45;2.00;;;11.00;99.90;;;;;;4893376;29;20044;-81
2023/01/07 11:04:13;;;;;;;5.63;1.90;;;11.40;99.90;;;;;;4893334;29;20044;-81
2023/01/07 11:06:44;;;;;;;3.67;1.85;;;9.80;99.90;;;;;;4894376;29;20060;-81
2023/01/07 11:09:17;;;;;;;1.73;1.33;;;9.80;99.90;;;;;;4895323;29;20040;-81
2023/01/07 11:11:46;;;;;;;3.58;1.40;;;9.80;99.90;;;;;;4903796;29;20044;-81
2023/01/07 11:14:19;;;;;;;2.70;1.60;;;10.10;99.90;;;;;;4892878;29;20048;-81
2023/01/07 11:16:55;;;;;;;3.43;1.30;;;9.90;99.90;;;;;;4903443;29;20445;-81
2023/01/07 11:19:39;;;;;;;2.55;1.65;;;10.00;99.90;;;;;;4904994;29;20042;-81
2023/01/07 11:22:24;;;;;;;4.50;2.40;;;10.00;99.90;;;;;;4895091;29;20136;-82
2023/01/07 11:24:50;;;;;;;8.60;5.53;;;10.00;99.90;;;;;;4904782;29;20527;-81
2023/01/07 11:27:18;;;;;;;2.85;1.45;;;11.20;99.90;;;;;;4880165;29;20044;-82
2023/01/07 11:29:53;;;;;;;3.92;1.10;;;10.10;99.90;;;;;;4893728;29;20387;-81
2023/01/07 11:32:25;;;;;;;3.05;1.30;;;10.10;99.90;;;;;;4876970;29;20056;-82
2023/01/07 11:35:06;;;;;;;4.03;1.20;;;10.50;99.90;;;;;;4879620;29;20048;-82
2023/01/07 11:37:39;;;;;;;1.85;0.90;;;10.20;99.90;;;;;;4894297;29;20486;-82
2023/01/07 11:40:13;;;;;;;0.95;0.82;;;10.20;99.90;;;;;;4895039;29;20409;-82
2023/01/07 11:42:59;;;;;;;1.65;0.80;;;10.90;99.90;;;;;;4892902;29;20063;-81
2023/01/07 11:45:27;;;;;;;1.00;0.90;;;10.20;99.90;;;;;;4904482;29;20044;-82
2023/01/07 11:47:56;;;;;;;1.52;0.65;;;11.30;99.90;;;;;;4902719;29;20501;-81
2023/01/07 11:50:43;;;;;;;3.35;1.10;;;10.20;99.90;;;;;;4891631;29;20049;-83
2023/01/07 11:53:15;;;;;;;1.38;0.90;;;10.20;99.90;;;;;;4899614;29;20078;-82
2023/01/07 11:55:58;;;;;;;1.08;0.90;;;10.20;99.90;;;;;;4894718;29;20076;-83
2023/01/07 11:58:31;;;;;;;1.63;1.13;;;10.10;99.90;;;;;;4891385;29;20135;-82
2023/01/07 12:01:09;;;;;;;2.70;1.10;;;10.30;99.90;;;;;;4880046;29;20044;-82
2023/01/07 12:03:36;;;;;;;1.17;0.90;;;10.20;99.90;;;;;;4905932;29;20040;-81
2023/01/07 12:06:37;;;;;;;1.75;0.88;;;10.20;99.90;;;;;;4877819;29;20036;-84
2023/01/07 12:09:23;;;;;;;2.92;1.13;;;10.20;99.90;;;;;;4874683;29;20099;-83
2023/01/07 12:11:49;;;;;;;2.40;0.90;;;10.20;99.90;;;;;;4902464;29;20163;-83
2023/01/07 12:14:15;;;;;;;2.45;0.80;;;10.20;99.90;;;;;;4904527;29;20143;-84
2023/01/07 12:16:45;;;;;;;2.55;1.00;;;10.20;99.90;;;;;;4870907;29;20069;-83
2023/01/07 12:19:33;;;;;;;1.50;0.90;;;10.20;99.90;;;;;;4876133;29;20044;-84
2023/01/07 12:22:40;;;;;;;2.05;0.88;;;10.20;99.90;;;;;;4878961;29;20052;-83
2023/01/07 12:25:21;;;;;;;2.17;1.30;;;10.20;99.90;;;;;;4875537;29;20067;-83
2023/01/07 12:28:05;;;;;;;1.50;1.10;;;10.20;99.90;;;;;;4879615;29;20036;-82
2023/01/07 12:31:06;;;;;;;1.13;0.75;;;10.20;99.90;;;;;;4875830;29;20036;-83
2023/01/07 12:33:50;;;;;;;4.63;1.30;;;10.20;99.90;;;;;;4896116;29;20104;-84
2023/01/07 12:36:59;;;;;;;1.08;0.93;;;10.30;99.90;;;;;;4894590;29;20075;-83
2023/01/07 12:39:34;;;;;;;5.95;5.35;;;10.20;99.90;;;;;;4885776;29;20051;-83
2023/01/07 12:42:14;;;;;;;5.95;2.70;;;10.30;99.90;;;;;;4879113;29;20519;-82
2023/01/07 12:44:51;;;;;;;2.50;2.30;;;11.60;99.90;;;;;;4894857;29;20596;-83
2023/01/07 12:47:27;;;;;;;4.80;1.98;;;10.90;99.90;;;;;;4878135;29;20048;-81
2023/01/07 12:50:20;;;;;;;1.35;1.25;;;10.40;99.90;;;;;;4877819;29;20048;-81
2023/01/07 12:52:51;;;;;;;1.38;0.98;;;10.40;99.90;;;;;;4878464;29;20504;-82
2023/01/07 12:55:34;;;;;;;1.48;1.38;;;11.60;99.90;;;;;;4891602;29;20119;-82
2023/01/07 12:58:02;;;;;;;1.80;1.23;;;11.50;99.90;;;;;;4893504;29;20151;-84
2023/01/07 13:00:35;;;;;;;1.58;1.48;;;11.20;99.90;;;;;;4893971;29;20044;-83
2023/01/07 13:03:25;;;;;;;1.33;0.80;;;11.40;99.90;;;;;;4901991;29;20056;-82
2023/01/07 13:05:55;;;;;;;1.20;1.10;;;10.50;99.90;;;;;;4892353;29;20080;-81